createdAt,value
2022-08-03T00:01:20.564Z,57.00
2022-08-03T00:03:47.069Z,56.30
2022-08-03T00:08:40.520Z,57.20
2022-08-03T00:11:06.970Z,56.10
2022-08-03T00:16:00.414Z,57.00
2022-08-03T00:18:26.861Z,57.00
2022-08-03T00:23:20.294Z,56.70
2022-08-03T00:25:46.747Z,56.80
2022-08-03T00:28:13.186Z,56.50
2022-08-03T00:30:39.907Z,56.90
2022-08-03T00:33:08.434Z,56.10
2022-08-03T00:35:50.978Z,55.90
2022-08-03T00:38:17.676Z,56.90
2022-08-03T00:40:44.115Z,56.20
2022-08-03T00:43:10.566Z,56.00
2022-08-03T00:45:37.038Z,56.80
2022-08-03T00:48:03.500Z,56.70
2022-08-03T00:50:29.946Z,55.90
2022-08-03T00:52:56.407Z,56.90
2022-08-03T00:55:22.837Z,56.40
2022-08-03T00:57:49.307Z,56.80
2022-08-03T01:00:15.765Z,57.00
2022-08-03T01:02:42.208Z,56.60
2022-08-03T01:05:08.650Z,55.90
2022-08-03T01:07:35.085Z,56.90
2022-08-03T01:10:01.535Z,56.00
2022-08-03T01:12:27.991Z,56.50
2022-08-03T01:14:54.434Z,56.10
2022-08-03T01:17:20.892Z,56.20
2022-08-03T01:19:47.330Z,56.70
2022-08-03T01:24:41.039Z,56.80
2022-08-03T01:27:07.478Z,56.90
2022-08-03T01:29:33.912Z,56.40
2022-08-03T01:32:59.658Z,56.50
2022-08-03T01:34:46.776Z,56.50
2022-08-03T01:37:13.225Z,56.80
2022-08-03T01:39:39.680Z,56.30
2022-08-03T01:42:06.128Z,55.60
2022-08-03T01:46:59.592Z,56.60
2022-08-03T01:49:26.114Z,56.00
2022-08-03T01:51:58.588Z,55.90
2022-08-03T01:54:31.597Z,55.40
2022-08-03T01:56:58.021Z,56.60
2022-08-03T01:59:24.462Z,56.60
2022-08-03T02:02:16.033Z,56.20
2022-08-03T02:04:37.374Z,55.90
2022-08-03T02:09:30.814Z,55.80
2022-08-03T02:11:57.280Z,56.50
2022-08-03T02:14:23.732Z,56.50
2022-08-03T02:16:50.197Z,56.60
2022-08-03T02:19:16.628Z,56.50
2022-08-03T02:24:24.011Z,56.00
2022-08-03T02:29:17.455Z,55.80
2022-08-03T02:31:43.892Z,55.70
2022-08-03T02:34:10.346Z,56.30
2022-08-03T02:36:36.791Z,56.40
2022-08-03T02:39:03.234Z,56.40
2022-08-03T02:41:29.693Z,55.90
2022-08-03T02:44:06.655Z,56.40
2022-08-03T02:46:33.814Z,56.30
2022-08-03T02:49:00.319Z,55.50
2022-08-03T02:51:46.704Z,55.60
2022-08-03T02:54:13.158Z,56.30
2022-08-03T02:56:39.593Z,56.10
2022-08-03T02:59:06.060Z,56.60
2022-08-03T03:01:32.648Z,56.40
2022-08-03T03:03:59.255Z,56.60
2022-08-03T03:06:27.574Z,56.40
2022-08-03T03:08:59.621Z,56.10
2022-08-03T03:11:26.382Z,56.30
2022-08-03T03:13:52.829Z,55.40
2022-08-03T03:16:19.281Z,56.40
2022-08-03T03:18:45.718Z,56.20
2022-08-03T03:21:12.203Z,56.20
2022-08-03T03:23:38.640Z,56.20
2022-08-03T03:26:05.108Z,56.50
2022-08-03T03:28:31.586Z,56.20
2022-08-03T03:30:58.032Z,56.30
2022-08-03T03:33:24.482Z,56.30
2022-08-03T03:38:17.919Z,56.00
2022-08-03T03:40:44.362Z,56.10
2022-08-03T03:43:10.821Z,56.40
2022-08-03T03:48:04.254Z,56.40
2022-08-03T03:50:30.687Z,55.90
2022-08-03T03:52:57.154Z,56.20
2022-08-03T03:55:23.590Z,56.10
2022-08-03T04:00:17.018Z,55.90
2022-08-03T04:02:43.473Z,55.10
2022-08-03T04:05:09.927Z,56.30
2022-08-03T04:10:14.423Z,53.10
2022-08-03T04:12:50.427Z,52.70
2022-08-03T04:15:17.193Z,52.70
2022-08-03T04:17:43.664Z,52.70
2022-08-03T04:20:10.102Z,52.70
2022-08-03T04:22:36.542Z,52.70
2022-08-03T04:25:02.987Z,53.20
2022-08-03T04:27:29.478Z,53.30
2022-08-03T04:29:55.920Z,53.60
2022-08-03T04:32:22.362Z,53.10
2022-08-03T04:34:48.809Z,53.30
2022-08-03T04:37:15.253Z,53.40
2022-08-03T04:39:41.710Z,53.70
2022-08-03T04:42:09.134Z,53.80
2022-08-03T04:44:35.726Z,53.80
2022-08-03T04:47:02.160Z,54.40
2022-08-03T04:49:28.909Z,54.60
2022-08-03T04:51:55.426Z,54.70
2022-08-03T04:54:21.879Z,54.60
2022-08-03T04:56:48.327Z,55.40
2022-08-03T04:59:14.777Z,55.30
2022-08-03T05:01:41.289Z,55.00
2022-08-03T05:04:07.760Z,55.00
2022-08-03T05:06:34.202Z,55.20
2022-08-03T05:09:01.834Z,55.30
2022-08-03T05:11:28.289Z,55.30
2022-08-03T05:16:21.747Z,55.50
2022-08-03T05:18:48.197Z,55.80
2022-08-03T05:21:14.641Z,55.90
2022-08-03T05:26:08.128Z,56.40
2022-08-03T05:28:34.590Z,56.50
2022-08-03T05:31:01.034Z,56.40
2022-08-03T05:38:28.850Z,56.20
2022-08-03T05:41:21.060Z,56.70
2022-08-03T05:43:47.389Z,56.10
2022-08-03T05:46:13.846Z,56.80
2022-08-03T05:51:07.320Z,55.70
2022-08-03T05:53:33.772Z,55.90
2022-08-03T05:56:03.403Z,56.60
2022-08-03T05:58:41.210Z,56.30
2022-08-03T06:01:07.743Z,56.10
2022-08-03T06:03:34.247Z,56.40
2022-08-03T06:08:27.726Z,56.60
2022-08-03T06:10:54.177Z,57.10
2022-08-03T06:13:20.632Z,56.30
2022-08-03T06:15:47.078Z,56.90
2022-08-03T06:20:40.528Z,56.70
2022-08-03T06:23:08.064Z,56.80
2022-08-03T06:25:42.495Z,57.20
2022-08-03T06:28:15.010Z,57.30
2022-08-03T06:30:50.208Z,57.20
2022-08-03T06:33:16.649Z,57.50
2022-08-03T06:35:43.112Z,58.20
2022-08-03T06:38:11.790Z,57.30
2022-08-03T06:40:38.258Z,57.90
2022-08-03T06:43:05.143Z,58.20
2022-08-03T06:47:59.565Z,58.30
2022-08-03T06:50:26.411Z,57.70
2022-08-03T06:52:52.926Z,58.60
2022-08-03T06:55:19.385Z,57.80
2022-08-03T06:57:45.820Z,58.40
2022-08-03T07:00:12.849Z,57.30
2022-08-03T07:02:39.400Z,57.50
2022-08-03T07:05:05.854Z,57.50
2022-08-03T07:07:32.294Z,58.20
2022-08-03T07:09:58.736Z,58.10
2022-08-03T07:12:25.217Z,58.10
2022-08-03T07:14:51.698Z,58.30
2022-08-03T07:17:18.134Z,58.10
2022-08-03T07:19:44.576Z,57.70
2022-08-03T07:22:11.030Z,57.60
2022-08-03T07:24:37.492Z,57.70
2022-08-03T07:27:06.032Z,57.00
2022-08-03T07:29:35.386Z,57.70
2022-08-03T07:32:01.881Z,57.30
2022-08-03T07:34:28.348Z,57.80
2022-08-03T07:36:54.796Z,57.90
2022-08-03T07:39:21.278Z,58.00
2022-08-03T07:41:47.733Z,57.60
2022-08-03T07:44:14.179Z,56.90
2022-08-03T07:46:40.629Z,57.60
2022-08-03T07:49:07.126Z,56.80
2022-08-03T07:51:33.653Z,57.90
2022-08-03T07:54:00.119Z,57.50
2022-08-03T07:56:26.587Z,57.40
2022-08-03T07:58:53.043Z,57.40
2022-08-03T08:01:19.556Z,57.50
2022-08-03T08:03:53.465Z,57.40
2022-08-03T08:06:21.225Z,57.50
2022-08-03T08:11:14.692Z,57.60
2022-08-03T08:13:41.300Z,57.40
2022-08-03T08:16:07.777Z,57.50
2022-08-03T08:18:34.224Z,57.50
2022-08-03T08:21:00.689Z,57.30
2022-08-03T08:23:37.923Z,56.80
2022-08-03T08:26:10.096Z,56.70
2022-08-03T08:31:03.573Z,56.70
2022-08-03T08:34:01.359Z,56.50
2022-08-03T08:38:43.501Z,56.80
2022-08-03T08:41:09.944Z,56.20
2022-08-03T08:43:36.418Z,56.10
2022-08-03T08:46:02.863Z,55.70
2022-08-03T08:48:29.305Z,54.80
2022-08-03T08:50:55.758Z,55.10
2022-08-03T08:53:27.148Z,54.90
2022-08-03T08:55:59.251Z,55.00
2022-08-03T08:58:26.693Z,54.80
2022-08-03T09:00:53.442Z,54.80
2022-08-03T09:03:29.444Z,54.60
2022-08-03T09:05:57.303Z,54.40
2022-08-03T09:08:23.825Z,54.10
2022-08-03T09:10:50.275Z,54.20
2022-08-03T09:13:16.721Z,54.10
2022-08-03T09:15:59.827Z,54.10
2022-08-03T09:18:27.855Z,53.80
2022-08-03T09:21:06.784Z,52.50
2022-08-03T09:24:01.673Z,52.20
2022-08-03T09:26:29.602Z,51.90
2022-08-03T09:29:00.830Z,52.70
2022-08-03T09:31:30.466Z,53.70
2022-08-03T09:33:56.926Z,52.60
2022-08-03T09:38:50.383Z,53.10
2022-08-03T09:41:16.861Z,53.10
2022-08-03T09:43:43.294Z,53.60
2022-08-03T09:48:36.754Z,54.00
2022-08-03T09:51:13.100Z,53.90
2022-08-03T09:53:40.202Z,53.90
2022-08-03T09:56:35.167Z,53.80
2022-08-03T09:59:03.289Z,54.10
2022-08-03T10:01:29.781Z,53.00
2022-08-03T10:06:31.080Z,53.90
2022-08-03T10:08:57.562Z,54.10
2022-08-03T10:11:24.008Z,53.80
2022-08-03T10:13:50.462Z,53.60
2022-08-03T10:16:25.837Z,53.70
2022-08-03T10:18:52.484Z,54.30
2022-08-03T10:21:19.021Z,53.60
2022-08-03T10:23:45.539Z,54.20
2022-08-03T10:26:12.009Z,55.10
2022-08-03T10:28:42.949Z,55.10
2022-08-03T10:31:11.602Z,55.20
2022-08-03T10:33:51.197Z,55.20
2022-08-03T10:36:19.124Z,55.20
2022-08-03T10:41:12.591Z,55.20
2022-08-03T10:43:39.037Z,55.10
2022-08-03T10:46:05.513Z,55.00
2022-08-03T10:50:58.948Z,54.70
2022-08-03T10:53:25.409Z,55.10
2022-08-03T10:55:51.848Z,55.20
2022-08-03T10:58:30.538Z,55.40
2022-08-03T11:00:57.391Z,55.10
2022-08-03T11:03:23.899Z,55.10
2022-08-03T11:05:50.348Z,55.50
2022-08-03T11:08:17.438Z,54.80
2022-08-03T11:10:43.889Z,54.80
2022-08-03T11:13:10.347Z,55.00
2022-08-03T11:15:38.691Z,55.10
2022-08-03T11:20:32.130Z,55.10
2022-08-03T11:22:58.602Z,55.20
2022-08-03T11:25:53.475Z,55.20
2022-08-03T11:30:38.511Z,55.20
2022-08-03T11:33:04.962Z,55.20
2022-08-03T11:35:31.435Z,55.30
2022-08-03T11:38:03.605Z,55.00
2022-08-03T11:42:58.858Z,55.50
2022-08-03T11:45:25.353Z,55.30
2022-08-03T11:47:51.806Z,55.30
2022-08-03T11:52:45.270Z,55.50
2022-08-03T11:55:11.727Z,55.50
2022-08-03T11:59:19.156Z,55.50
2022-08-03T12:00:25.904Z,55.50
2022-08-03T12:02:52.720Z,55.50
2022-08-03T12:05:19.216Z,55.50
2022-08-03T12:08:03.535Z,55.50
2022-08-03T12:10:30.937Z,55.60
2022-08-03T12:12:57.395Z,55.60
2022-08-03T12:15:23.845Z,55.20
2022-08-03T12:17:51.940Z,55.70
2022-08-03T12:20:21.261Z,55.80
2022-08-03T12:23:01.029Z,55.60
2022-08-03T12:28:06.212Z,55.80
2022-08-03T12:30:52.674Z,55.70
2022-08-03T12:33:19.162Z,55.90
2022-08-03T12:35:52.529Z,55.40
2022-08-03T12:38:19.926Z,55.60
2022-08-03T12:40:46.387Z,55.80
2022-08-03T12:43:12.868Z,55.80
2022-08-03T12:45:39.335Z,55.30
2022-08-03T12:48:05.797Z,54.90
2022-08-03T12:50:32.272Z,55.00
2022-08-03T12:52:58.754Z,55.50
2022-08-03T12:55:25.223Z,55.60
2022-08-03T12:57:51.681Z,55.50
2022-08-03T13:00:21.346Z,55.60
2022-08-03T13:03:26.583Z,55.60
2022-08-03T13:05:42.142Z,55.60
2022-08-03T13:08:08.590Z,55.60
2022-08-03T13:10:37.966Z,55.10
2022-08-03T13:13:04.438Z,55.20
2022-08-03T13:15:33.515Z,55.60
2022-08-03T13:18:05.112Z,56.00
2022-08-03T13:20:31.559Z,55.40
2022-08-03T13:25:27.485Z,56.40
2022-08-03T13:30:31.474Z,55.80
2022-08-03T13:32:57.905Z,55.50
2022-08-03T13:35:25.194Z,55.60
2022-08-03T13:37:51.688Z,55.40
2022-08-03T13:40:18.185Z,56.00
2022-08-03T13:45:11.677Z,55.90
2022-08-03T13:47:38.157Z,55.10
2022-08-03T13:50:04.679Z,56.20
2022-08-03T13:54:58.214Z,55.50
2022-08-03T13:58:03.179Z,55.80
2022-08-03T14:00:11.105Z,56.10
2022-08-03T14:05:04.678Z,56.10
2022-08-03T14:07:31.118Z,56.30
2022-08-03T14:09:57.576Z,56.20
2022-08-03T14:12:24.034Z,56.00
2022-08-03T14:14:50.489Z,55.60
2022-08-03T14:17:17.023Z,56.00
2022-08-03T14:19:52.952Z,55.80
2022-08-03T14:22:20.429Z,55.80
2022-08-03T14:24:46.891Z,56.00
2022-08-03T14:27:13.328Z,55.90
2022-08-03T14:29:39.808Z,55.80
2022-08-03T14:32:10.922Z,56.20
2022-08-03T14:34:39.260Z,56.20
2022-08-03T14:37:05.704Z,56.00
2022-08-03T14:42:18.596Z,56.30
2022-08-03T14:44:45.055Z,56.10
2022-08-03T14:47:11.606Z,56.60
2022-08-03T14:52:25.153Z,56.20
2022-08-03T14:54:51.619Z,56.30
2022-08-03T14:57:18.234Z,56.50
2022-08-03T14:59:55.694Z,56.80
2022-08-03T15:02:24.331Z,56.80
2022-08-03T15:04:50.997Z,56.40
2022-08-03T15:07:17.523Z,56.70
2022-08-03T15:12:11.085Z,56.60
2022-08-03T15:14:37.820Z,56.70
2022-08-03T15:20:01.998Z,56.80
2022-08-03T15:22:19.042Z,56.60
2022-08-03T15:24:47.337Z,56.80
2022-08-03T15:27:14.253Z,56.70
2022-08-03T15:30:05.501Z,56.70
2022-08-03T15:32:27.643Z,56.60
2022-08-03T15:34:54.076Z,56.60
2022-08-03T15:37:20.508Z,56.40
2022-08-03T15:39:58.476Z,56.60
2022-08-03T15:42:26.619Z,56.90
2022-08-03T15:44:53.921Z,56.80
2022-08-03T15:47:21.460Z,56.90
2022-08-03T15:49:48.119Z,56.70
2022-08-03T15:52:14.565Z,56.40
2022-08-03T15:54:41.009Z,56.70
2022-08-03T15:57:07.465Z,56.70
2022-08-03T15:59:33.905Z,56.80
2022-08-03T16:02:00.460Z,56.50
2022-08-03T16:04:26.951Z,56.50
2022-08-03T16:06:53.418Z,56.70
2022-08-03T16:09:23.873Z,56.60
2022-08-03T16:14:41.575Z,56.60
2022-08-03T16:17:13.413Z,56.80
2022-08-03T16:19:39.846Z,56.50
2022-08-03T16:22:06.310Z,56.80
2022-08-03T16:24:33.377Z,56.80
2022-08-03T16:27:00.594Z,56.70
2022-08-03T16:29:27.363Z,57.30
2022-08-03T16:31:53.811Z,56.70
2022-08-03T16:34:20.279Z,56.90
2022-08-03T16:36:46.713Z,57.00
2022-08-03T16:39:13.235Z,57.20
2022-08-03T16:41:54.507Z,57.40
2022-08-03T16:44:26.185Z,57.50
2022-08-03T16:46:53.576Z,57.30
2022-08-03T16:52:07.241Z,57.80
2022-08-03T16:54:33.769Z,57.60
2022-08-03T16:57:01.304Z,57.50
2022-08-03T16:59:36.326Z,57.70
2022-08-03T17:02:07.984Z,57.50
2022-08-03T17:04:36.545Z,57.60
2022-08-03T17:07:06.732Z,58.50
2022-08-03T17:09:38.189Z,58.90
2022-08-03T17:12:05.382Z,57.90
2022-08-03T17:14:33.661Z,57.70
2022-08-03T17:17:00.130Z,57.90
2022-08-03T17:19:28.142Z,57.20
2022-08-03T17:21:55.675Z,57.40
2022-08-03T17:24:24.517Z,57.50
2022-08-03T17:26:51.784Z,57.40
2022-08-03T17:29:18.537Z,57.30
2022-08-03T17:31:50.069Z,57.60
2022-08-03T17:34:16.578Z,57.70
2022-08-03T17:39:48.822Z,57.50
2022-08-03T17:42:17.189Z,57.20
2022-08-03T17:44:56.222Z,57.60
2022-08-03T17:47:22.790Z,57.50
2022-08-03T17:49:55.770Z,57.50
2022-08-03T17:52:22.369Z,57.50
2022-08-03T17:54:49.295Z,57.30
2022-08-03T17:58:02.617Z,57.60
2022-08-03T18:03:08.311Z,56.60
2022-08-03T18:06:10.403Z,57.20
2022-08-03T18:08:24.840Z,57.20
2022-08-03T18:13:20.241Z,57.50
2022-08-03T18:15:46.684Z,57.80
2022-08-03T18:18:14.494Z,57.40
2022-08-03T18:20:45.472Z,57.20
2022-08-03T18:23:24.882Z,57.40
2022-08-03T18:25:59.085Z,57.40
2022-08-03T18:30:53.237Z,57.40
2022-08-03T18:34:18.571Z,57.40
2022-08-03T18:36:07.703Z,57.40
2022-08-03T18:38:35.655Z,57.40
2022-08-03T18:41:02.111Z,57.60
2022-08-03T18:43:47.597Z,57.30
2022-08-03T18:48:41.995Z,57.30
2022-08-03T18:54:02.159Z,57.30
2022-08-03T18:59:02.230Z,57.20
2022-08-03T19:01:58.050Z,57.30
2022-08-03T19:04:15.603Z,57.30
2022-08-03T19:06:43.462Z,57.20
2022-08-03T19:09:10.611Z,56.80
2022-08-03T19:12:13.337Z,57.70
2022-08-03T19:16:55.347Z,57.30
2022-08-03T19:21:49.238Z,57.30
2022-08-03T19:24:15.757Z,57.30
2022-08-03T19:26:42.224Z,57.60
2022-08-03T19:29:14.792Z,57.20
2022-08-03T19:31:41.721Z,57.60
2022-08-03T19:34:25.757Z,57.40
2022-08-03T19:36:52.222Z,57.70
2022-08-03T19:39:18.795Z,57.50
2022-08-03T19:41:51.467Z,57.50
2022-08-03T19:44:20.124Z,57.60
2022-08-03T19:46:46.842Z,58.10
2022-08-03T19:49:15.382Z,57.50
2022-08-03T19:51:58.982Z,57.40
2022-08-03T19:54:29.536Z,57.60
2022-08-03T19:56:58.483Z,57.40
2022-08-03T19:59:26.358Z,57.20
2022-08-03T20:01:52.968Z,57.20
2022-08-03T20:04:21.218Z,57.00
2022-08-03T20:06:47.661Z,56.80
2022-08-03T20:09:16.126Z,56.80
2022-08-03T20:11:43.707Z,56.50
2022-08-03T20:14:11.517Z,56.60
2022-08-03T20:16:39.774Z,56.60
2022-08-03T20:19:14.211Z,57.00
2022-08-03T20:21:40.829Z,56.20
2022-08-03T20:24:23.723Z,56.00
2022-08-03T20:26:51.733Z,56.20
2022-08-03T20:29:19.763Z,56.10
2022-08-03T20:32:06.207Z,56.00
2022-08-03T20:34:32.954Z,56.30
2022-08-03T20:36:59.400Z,55.90
2022-08-03T20:39:26.515Z,56.00
2022-08-03T20:41:53.903Z,56.40
2022-08-03T20:44:25.876Z,56.20
2022-08-03T20:47:00.214Z,56.20
2022-08-03T20:49:27.278Z,55.90
2022-08-03T20:51:53.881Z,55.80
2022-08-03T20:54:28.596Z,55.90
2022-08-03T20:56:56.503Z,55.90
2022-08-03T20:59:22.947Z,56.00
2022-08-03T21:01:50.619Z,56.00
2022-08-03T21:04:21.117Z,55.60
2022-08-03T21:06:53.240Z,56.30
2022-08-03T21:09:20.059Z,56.50
2022-08-03T21:11:46.548Z,56.30
2022-08-03T21:13:04.278Z,56.20
2022-08-03T21:14:13.006Z,56.30
2022-08-03T21:16:39.450Z,56.00
2022-08-03T21:19:05.902Z,55.30
2022-08-03T21:21:32.339Z,55.70
2022-08-03T21:23:58.799Z,56.50
2022-08-03T21:26:25.247Z,55.80
2022-08-03T21:31:22.321Z,55.70
2022-08-03T21:33:52.272Z,55.50
2022-08-03T21:36:18.711Z,55.40
2022-08-03T21:41:23.247Z,55.80
2022-08-03T21:43:49.707Z,55.50
2022-08-03T21:46:16.195Z,56.40
2022-08-03T21:48:42.659Z,55.60
2022-08-03T21:51:09.099Z,55.60
2022-08-03T21:54:02.578Z,55.70
2022-08-03T21:58:50.969Z,56.10
2022-08-03T22:01:17.610Z,55.40
2022-08-03T22:06:19.948Z,55.10
2022-08-03T22:08:46.570Z,55.20
2022-08-03T22:11:13.036Z,55.10
2022-08-03T22:13:43.889Z,55.40
2022-08-03T22:16:11.110Z,55.00
2022-08-03T22:18:37.609Z,54.90
2022-08-03T22:21:04.060Z,54.90
2022-08-03T22:23:30.505Z,55.20
2022-08-03T22:28:23.950Z,55.80
2022-08-03T22:30:50.400Z,54.90
2022-08-03T22:33:16.862Z,54.90
2022-08-03T22:38:10.987Z,54.80
2022-08-03T22:40:37.445Z,55.00
2022-08-03T22:46:07.647Z,54.90
2022-08-03T22:48:17.298Z,54.90
2022-08-03T22:50:43.753Z,54.80
2022-08-03T22:53:10.221Z,55.20
2022-08-03T22:55:36.658Z,54.90
2022-08-03T22:58:03.121Z,55.00
2022-08-03T23:00:29.580Z,54.50
2022-08-03T23:02:56.047Z,55.40
2022-08-03T23:08:09.479Z,54.80
2022-08-03T23:10:35.942Z,54.80
2022-08-03T23:13:02.389Z,55.00
2022-08-03T23:17:57.807Z,54.70
2022-08-03T23:20:26.537Z,54.80
2022-08-03T23:22:53.352Z,54.60
2022-08-03T23:25:20.122Z,54.60
2022-08-03T23:27:46.593Z,54.80
2022-08-03T23:30:16.953Z,55.00
2022-08-03T23:35:10.885Z,54.40
2022-08-03T23:38:04.536Z,54.30
2022-08-03T23:40:23.774Z,54.60
2022-08-03T23:45:17.236Z,54.10
2022-08-03T23:47:46.895Z,54.60
2022-08-03T23:50:13.981Z,54.60
2022-08-03T23:52:40.422Z,54.60
2022-08-03T23:55:06.856Z,54.50
2022-08-03T23:57:33.297Z,54.60
2022-08-03T23:59:59.765Z,54.30
